Time;durP1;ratioP1;P1;durP2;ratioP2;P2;SDS_P1;SDS_P2;PMS_P1;PMS_P2;Temp;Humidity;BMP_temperature;BMP_pressure;BME280_temperature;BME280_humidity;BME280_pressure;Samples;Min_cycle;Max_cycle;Signal;HPM_P1;HPM_P2
2023/03/04 00:01:51;;;;;;;3.80;0.90;;;;;12.50;102482.00;;;;5038917;28;20196;-74
2023/03/04 00:04:19;;;;;;;4.47;0.60;;;;;12.60;102483.00;;;;5046558;28;20658;-74
2023/03/04 00:06:47;;;;;;;6.72;1.27;;;;;12.60;102484.00;;;;5047376;28;20224;-74
2023/03/04 00:09:14;;;;;;;3.38;0.73;;;;;12.60;102489.00;;;;5047604;28;20693;-74
2023/03/04 00:11:41;;;;;;;4.82;1.02;;;;;12.60;102488.00;;;;5045409;28;20242;-74
2023/03/04 00:14:09;;;;;;;3.65;0.57;;;;;12.60;102487.00;;;;5047244;28;20196;-74
2023/03/04 00:16:36;;;;;;;4.13;0.50;;;;;12.60;102485.00;;;;5045550;28;20196;-74
2023/03/04 00:19:05;;;;;;;5.10;0.80;;;;;12.60;102482.00;;;;5047048;28;20215;-74
2023/03/04 00:21:33;;;;;;;4.22;0.70;;;;;12.60;102478.00;;;;5046093;28;20200;-74
2023/03/04 00:24:00;;;;;;;6.70;0.93;;;;;12.60;102485.00;;;;5045947;28;20196;-74
2023/03/04 00:26:28;;;;;;;5.43;0.85;;;;;12.60;102481.00;;;;5047047;28;20208;-74
2023/03/04 00:28:55;;;;;;;2.33;0.68;;;;;12.60;102486.00;;;;5040633;28;20191;-74
2023/03/04 00:31:22;;;;;;;4.22;1.10;;;;;12.60;102476.00;;;;5046821;28;20345;-74
2023/03/04 00:33:50;;;;;;;4.60;0.90;;;;;12.60;102484.00;;;;5047647;28;20195;-74
2023/03/04 00:36:18;;;;;;;4.43;0.98;;;;;12.60;102484.00;;;;5044000;28;20192;-74
2023/03/04 00:38:46;;;;;;;5.80;0.73;;;;;12.60;102487.00;;;;5046135;28;20685;-74
2023/03/04 00:41:13;;;;;;;10.35;1.25;;;;;12.50;102482.00;;;;5046021;28;20199;-74
2023/03/04 00:43:40;;;;;;;5.47;1.05;;;;;12.60;102479.00;;;;5044892;28;20351;-74
2023/03/04 00:46:07;;;;;;;3.28;0.80;;;;;12.60;102485.00;;;;5046029;28;20557;-74
2023/03/04 00:48:35;;;;;;;6.35;0.93;;;;;12.50;102478.00;;;;5044948;28;20670;-74
2023/03/04 00:51:02;;;;;;;2.20;1.13;;;;;12.60;102489.00;;;;5046829;28;20226;-74
2023/03/04 00:53:31;;;;;;;4.47;0.40;;;;;12.50;102484.00;;;;5043990;28;20204;-74
2023/03/04 00:55:58;;;;;;;3.40;0.85;;;;;12.60;102492.00;;;;5045569;28;20207;-75
2023/03/04 00:58:25;;;;;;;6.65;0.77;;;;;12.60;102490.00;;;;5045690;28;20199;-74
2023/03/04 01:00:52;;;;;;;3.53;1.08;;;;;12.60;102486.00;;;;5045539;28;20191;-74
2023/03/04 01:03:20;;;;;;;3.03;0.47;;;;;12.50;102485.00;;;;5033847;28;20202;-74
2023/03/04 01:05:47;;;;;;;4.35;0.50;;;;;12.60;102481.00;;;;5045300;28;20204;-74
2023/03/04 01:08:14;;;;;;;3.85;0.40;;;;;12.60;102481.00;;;;5047335;28;20199;-74
2023/03/04 01:10:43;;;;;;;5.70;0.70;;;;;12.50;102484.00;;;;5045068;28;20204;-75
2023/03/04 01:13:10;;;;;;;4.22;0.50;;;;;12.50;102477.00;;;;5044328;28;20195;-75
2023/03/04 01:15:38;;;;;;;6.80;1.02;;;;;12.50;102478.00;;;;5050115;28;20207;-75
2023/03/04 01:18:05;;;;;;;3.00;0.90;;;;;12.50;102485.00;;;;5048214;28;20224;-76
2023/03/04 01:20:32;;;;;;;1.08;0.28;;;;;12.50;102477.00;;;;5048969;28;20211;-75
2023/03/04 01:23:00;;;;;;;3.00;0.43;;;;;12.50;102488.00;;;;5044407;28;20199;-75
2023/03/04 01:25:27;;;;;;;4.70;1.00;;;;;12.50;102474.00;;;;5050338;28;20200;-75
2023/03/04 01:27:55;;;;;;;3.25;0.82;;;;;12.50;102471.00;;;;5050892;28;20196;-75
2023/03/04 01:30:23;;;;;;;11.80;1.08;;;;;12.50;102475.00;;;;5048873;28;20204;-75
2023/03/04 01:32:50;;;;;;;2.63;0.65;;;;;12.50;102470.00;;;;5048792;28;20227;-75
2023/03/04 01:35:17;;;;;;;3.15;0.57;;;;;12.50;102469.00;;;;5044950;28;20200;-75
2023/03/04 01:37:45;;;;;;;6.28;0.75;;;;;12.50;102459.00;;;;5043016;28;20203;-75
2023/03/04 01:40:14;;;;;;;3.80;0.80;;;;;12.50;102455.00;;;;5046649;28;20196;-75
2023/03/04 01:42:41;;;;;;;2.13;0.43;;;;;12.50;102459.00;;;;5045798;28;20589;-75
2023/03/04 01:45:16;;;;;;;6.55;1.00;;;;;12.50;102448.00;;;;5045204;28;20192;-75
2023/03/04 01:47:47;;;;;;;4.75;0.60;;;;;12.50;102450.00;;;;5033578;28;20211;-73
2023/03/04 01:50:20;;;;;;;5.00;0.75;;;;;12.50;102446.00;;;;5045229;28;20200;-73
2023/03/04 01:52:48;;;;;;;4.53;0.68;;;;;12.50;102444.00;;;;5041386;28;20231;-73
2023/03/04 01:55:17;;;;;;;7.63;0.73;;;;;12.50;102442.00;;;;5048915;28;20214;-73
2023/03/04 01:57:46;;;;;;;3.95;0.88;;;;;12.50;102443.00;;;;5046691;28;20196;-72
2023/03/04 02:00:23;;;;;;;2.80;0.68;;;;;12.40;102438.00;;;;5049902;28;20212;-72
2023/03/04 02:02:53;;;;;;;7.72;1.05;;;;;12.40;102434.00;;;;5048314;28;20794;-72
2023/03/04 02:05:21;;;;;;;2.45;0.65;;;;;12.40;102437.00;;;;5050162;28;20206;-73
2023/03/04 02:07:49;;;;;;;7.20;1.23;;;;;12.40;102432.00;;;;5049285;28;20219;-72
2023/03/04 02:10:17;;;;;;;5.30;1.00;;;;;12.40;102424.00;;;;5046599;28;20188;-73
2023/03/04 02:12:45;;;;;;;5.93;1.13;;;;;12.40;102427.00;;;;5048540;28;20239;-73
2023/03/04 02:15:13;;;;;;;4.78;0.73;;;;;12.40;102430.00;;;;5049207;28;20229;-73
2023/03/04 02:17:41;;;;;;;2.97;0.40;;;;;12.40;102431.00;;;;5050312;28;20215;-73
2023/03/04 02:20:25;;;;;;;4.45;0.93;;;;;12.30;102410.00;;;;5049131;28;20195;-73
2023/03/04 02:23:00;;;;;;;5.57;0.90;;;;;12.30;102417.00;;;;5048829;28;20202;-73
2023/03/04 02:25:32;;;;;;;3.38;0.60;;;;;12.40;102405.00;;;;5048714;28;20196;-73
2023/03/04 02:28:00;;;;;;;3.20;0.70;;;;;12.40;102415.00;;;;5030492;28;20204;-74
2023/03/04 02:30:28;;;;;;;6.78;1.13;;;;;12.40;102410.00;;;;5044402;28;20200;-74
2023/03/04 02:32:55;;;;;;;7.68;1.00;;;;;12.40;102407.00;;;;5048821;28;20230;-74
2023/03/04 02:35:22;;;;;;;5.15;0.77;;;;;12.40;102413.00;;;;5048873;28;20238;-74
2023/03/04 02:37:50;;;;;;;3.40;0.75;;;;;12.40;102406.00;;;;5048337;28;20201;-74
2023/03/04 02:40:23;;;;;;;6.25;0.77;;;;;12.40;102401.00;;;;5048063;28;20188;-74
2023/03/04 02:42:50;;;;;;;4.22;0.80;;;;;12.40;102396.00;;;;5046126;28;20197;-74
2023/03/04 02:45:49;;;;;;;4.32;0.93;;;;;12.30;102389.00;;;;5048527;28;20202;-74
2023/03/04 02:48:19;;;;;;;4.38;0.60;;;;;12.40;102395.00;;;;4993019;28;20225;-74
2023/03/04 02:50:48;;;;;;;3.88;0.73;;;;;12.40;102389.00;;;;5035620;28;20203;-74
2023/03/04 02:53:16;;;;;;;3.28;0.93;;;;;12.40;102386.00;;;;5044386;28;20219;-74
2023/03/04 02:55:43;;;;;;;4.88;0.75;;;;;12.40;102385.00;;;;5046886;28;20207;-74
2023/03/04 02:58:11;;;;;;;1.55;0.73;;;;;12.40;102376.00;;;;5042410;28;20200;-74
2023/03/04 03:00:39;;;;;;;5.63;0.60;;;;;12.40;102385.00;;;;5048487;28;20211;-74
2023/03/04 03:03:08;;;;;;;3.80;0.60;;;;;12.40;102382.00;;;;5049559;28;20278;-74
2023/03/04 03:05:36;;;;;;;5.32;0.70;;;;;12.40;102374.00;;;;5049010;28;20207;-74
2023/03/04 03:08:04;;;;;;;5.35;0.77;;;;;12.50;102382.00;;;;5046307;28;20250;-74
2023/03/04 03:10:32;;;;;;;6.05;0.63;;;;;12.50;102382.00;;;;5049062;28;20207;-73
2023/03/04 03:12:59;;;;;;;4.70;0.70;;;;;12.50;102374.00;;;;5043615;28;20238;-74
2023/03/04 03:15:27;;;;;;;6.82;0.80;;;;;12.50;102375.00;;;;5049325;28;20658;-74
2023/03/04 03:17:57;;;;;;;3.08;0.63;;;;;12.50;102378.00;;;;5039408;28;20228;-74
2023/03/04 03:20:26;;;;;;;4.22;0.75;;;;;12.50;102378.00;;;;5036613;28;20291;-74
2023/03/04 03:22:53;;;;;;;3.90;0.80;;;;;12.50;102383.00;;;;5046928;28;20226;-74
2023/03/04 03:25:20;;;;;;;5.55;0.85;;;;;12.50;102375.00;;;;5049058;28;20207;-74
2023/03/04 03:27:48;;;;;;;7.07;0.80;;;;;12.50;102385.00;;;;5043753;28;20203;-74
2023/03/04 03:30:16;;;;;;;6.40;1.80;;;;;12.60;102372.00;;;;5047777;28;20195;-74
2023/03/04 03:32:43;;;;;;;6.50;0.77;;;;;12.50;102367.00;;;;5048612;28;20281;-74
2023/03/04 03:35:10;;;;;;;5.80;0.90;;;;;12.50;102367.00;;;;5048497;28;20203;-74
2023/03/04 03:37:39;;;;;;;4.38;0.90;;;;;12.50;102371.00;;;;5042987;28;20199;-73
2023/03/04 03:40:07;;;;;;;5.43;1.08;;;;;12.50;102365.00;;;;5039394;28;20931;-74
2023/03/04 03:42:35;;;;;;;3.90;0.50;;;;;12.50;102362.00;;;;5045601;28;20210;-74
2023/03/04 03:45:02;;;;;;;4.47;0.60;;;;;12.50;102358.00;;;;5049558;28;20207;-74
2023/03/04 03:47:29;;;;;;;2.80;0.73;;;;;12.50;102366.00;;;;5047716;28;20195;-74
2023/03/04 03:49:57;;;;;;;3.22;0.73;;;;;12.50;102365.00;;;;5048513;28;20199;-73
2023/03/04 03:52:24;;;;;;;2.63;0.40;;;;;12.50;102360.00;;;;5043863;28;20219;-74
2023/03/04 03:54:52;;;;;;;2.10;0.50;;;;;12.50;102363.00;;;;5046043;28;20196;-74
2023/03/04 03:57:20;;;;;;;2.20;0.30;;;;;12.40;102366.00;;;;5047890;28;20207;-74
2023/03/04 03:59:47;;;;;;;3.55;0.40;;;;;12.40;102366.00;;;;5042706;28;20206;-74
2023/03/04 04:02:14;;;;;;;7.32;0.70;;;;;12.40;102363.00;;;;5034588;28;20191;-74
2023/03/04 04:04:42;;;;;;;4.75;0.50;;;;;12.40;102363.00;;;;5044238;28;20649;-74
2023/03/04 04:07:09;;;;;;;3.13;0.40;;;;;12.50;102375.00;;;;5047555;28;20231;-74
2023/03/04 04:09:36;;;;;;;1.63;0.30;;;;;12.50;102370.00;;;;5046092;28;20196;-74
2023/03/04 04:12:07;;;;;;;6.40;0.70;;;;;12.40;102365.00;;;;5044579;28;20238;-73
2023/03/04 04:14:35;;;;;;;3.42;0.40;;;;;12.40;102376.00;;;;5044514;28;20192;-74
2023/03/04 04:17:02;;;;;;;3.45;0.60;;;;;12.50;102374.00;;;;5046656;28;20215;-73
2023/03/04 04:19:29;;;;;;;1.65;0.20;;;;;12.40;102383.00;;;;5047122;28;20199;-74
2023/03/04 04:21:57;;;;;;;4.70;0.77;;;;;12.40;102376.00;;;;5047803;28;20196;-74
2023/03/04 04:24:24;;;;;;;4.07;0.40;;;;;12.40;102382.00;;;;5047437;28;20650;-74
2023/03/04 04:26:51;;;;;;;2.22;0.32;;;;;12.40;102373.00;;;;5044951;28;20211;-74
2023/03/04 04:29:21;;;;;;;3.38;0.70;;;;;12.40;102377.00;;;;5045284;28;20196;-74
2023/03/04 04:31:49;;;;;;;6.25;0.80;;;;;12.40;102385.00;;;;5046905;28;20740;-74
2023/03/04 04:34:16;;;;;;;4.05;1.10;;;;;12.40;102374.00;;;;5034280;28;20581;-74
2023/03/04 04:36:43;;;;;;;1.50;0.32;;;;;12.40;102384.00;;;;5046098;28;20196;-74
2023/03/04 04:39:11;;;;;;;2.15;0.47;;;;;12.40;102372.00;;;;5048320;28;20208;-74
2023/03/04 04:41:40;;;;;;;1.50;0.28;;;;;12.40;102371.00;;;;5045295;28;20203;-74
2023/03/04 04:44:08;;;;;;;4.10;0.70;;;;;12.40;102372.00;;;;5047003;28;20202;-74
2023/03/04 04:46:38;;;;;;;2.05;0.25;;;;;12.40;102373.00;;;;5047853;28;20195;-74
2023/03/04 04:49:06;;;;;;;1.58;0.38;;;;;12.40;102381.00;;;;5048920;28;20673;-74
2023/03/04 04:51:34;;;;;;;3.38;0.60;;;;;12.40;102383.00;;;;5048921;28;20227;-74
2023/03/04 04:54:02;;;;;;;2.60;0.65;;;;;12.40;102385.00;;;;5050180;28;20219;-74
2023/03/04 04:56:30;;;;;;;2.60;0.50;;;;;12.40;102375.00;;;;5049432;28;20199;-74
2023/03/04 04:58:59;;;;;;;3.70;0.40;;;;;12.30;102370.00;;;;5049072;28;20202;-74
2023/03/04 05:01:27;;;;;;;4.63;1.08;;;;;12.30;102368.00;;;;5032829;28;20230;-74
2023/03/04 05:03:56;;;;;;;5.60;0.40;;;;;12.30;102378.00;;;;5047682;28;20200;-74
2023/03/04 05:06:24;;;;;;;1.45;0.43;;;;;12.30;102376.00;;;;5047861;28;20428;-75
2023/03/04 05:08:52;;;;;;;0.57;0.20;;;;;12.30;102372.00;;;;5044257;28;20200;-74
2023/03/04 05:11:21;;;;;;;2.00;0.30;;;;;12.40;102378.00;;;;5049073;28;20218;-74
2023/03/04 05:13:48;;;;;;;2.28;0.40;;;;;12.40;102377.00;;;;5044385;28;20227;-74
2023/03/04 05:16:17;;;;;;;1.13;0.30;;;;;12.40;102371.00;;;;5049196;28;20542;-74
2023/03/04 05:18:44;;;;;;;2.28;0.40;;;;;12.40;102383.00;;;;5050908;28;20226;-74
2023/03/04 05:21:13;;;;;;;4.00;0.20;;;;;12.40;102373.00;;;;5051347;28;20204;-74
2023/03/04 05:23:42;;;;;;;2.53;0.40;;;;;12.40;102388.00;;;;5050383;28;20204;-74
2023/03/04 05:26:12;;;;;;;3.47;0.63;;;;;12.40;102384.00;;;;5049215;28;20196;-74
2023/03/04 05:28:39;;;;;;;5.10;0.63;;;;;12.40;102385.00;;;;5042451;28;20212;-74
2023/03/04 05:31:06;;;;;;;2.30;0.40;;;;;12.40;102376.00;;;;5042351;28;20662;-74
2023/03/04 05:33:33;;;;;;;3.85;0.40;;;;;12.40;102387.00;;;;5039194;28;20249;-74
2023/03/04 05:36:02;;;;;;;6.55;0.63;;;;;12.40;102385.00;;;;5040065;28;20196;-74
2023/03/04 05:38:31;;;;;;;2.33;0.50;;;;;12.40;102384.00;;;;5047764;28;20195;-74
2023/03/04 05:41:01;;;;;;;4.18;0.70;;;;;12.40;102384.00;;;;5050143;28;20195;-74
2023/03/04 05:43:30;;;;;;;1.38;0.45;;;;;12.40;102386.00;;;;5050196;28;20200;-74
2023/03/04 05:45:58;;;;;;;6.65;0.68;;;;;12.40;102386.00;;;;5050459;28;20200;-74
2023/03/04 05:48:25;;;;;;;1.80;0.40;;;;;12.40;102383.00;;;;5045089;28;20207;-74
2023/03/04 05:50:56;;;;;;;2.30;0.30;;;;;12.40;102387.00;;;;5041934;28;20208;-74
2023/03/04 05:53:23;;;;;;;0.85;0.17;;;;;12.40;102378.00;;;;5049269;28;20230;-74
2023/03/04 05:55:54;;;;;;;1.55;0.50;;;;;12.40;102383.00;;;;5051349;28;20200;-74
2023/03/04 05:58:21;;;;;;;4.38;0.63;;;;;12.40;102374.00;;;;5044845;28;20208;-74
2023/03/04 06:00:49;;;;;;;6.10;0.70;;;;;12.40;102374.00;;;;5047807;28;20203;-74
2023/03/04 06:03:18;;;;;;;5.63;1.05;;;;;12.40;102378.00;;;;5049986;28;20226;-74
2023/03/04 06:05:45;;;;;;;3.40;0.68;;;;;12.40;102365.00;;;;5043416;28;20192;-74
2023/03/04 06:08:13;;;;;;;5.38;0.55;;;;;12.40;102372.00;;;;5044722;28;20207;-74
2023/03/04 06:10:42;;;;;;;2.45;0.32;;;;;12.40;102383.00;;;;5043815;28;20206;-74
2023/03/04 06:13:10;;;;;;;3.63;0.77;;;;;12.40;102384.00;;;;5041117;28;20230;-75
2023/03/04 06:15:38;;;;;;;2.45;0.40;;;;;12.40;102387.00;;;;5045281;28;20665;-74
2023/03/04 06:18:05;;;;;;;3.60;0.60;;;;;12.40;102385.00;;;;5046978;28;20222;-74
2023/03/04 06:20:33;;;;;;;2.28;0.47;;;;;12.40;102377.00;;;;5040182;28;20204;-74
2023/03/04 06:23:00;;;;;;;3.22;0.60;;;;;12.30;102381.00;;;;5039965;28;20203;-75
2023/03/04 06:25:28;;;;;;;4.50;0.30;;;;;12.30;102376.00;;;;5040334;28;20200;-74
2023/03/04 06:27:55;;;;;;;2.50;0.60;;;;;12.30;102372.00;;;;5038591;28;20211;-74
2023/03/04 06:30:25;;;;;;;2.03;0.50;;;;;12.30;102375.00;;;;5038366;28;20269;-75
2023/03/04 06:32:52;;;;;;;1.50;0.40;;;;;12.30;102383.00;;;;5042225;28;20696;-75
2023/03/04 06:35:20;;;;;;;4.32;0.35;;;;;12.30;102381.00;;;;5041477;28;20199;-75
2023/03/04 06:37:47;;;;;;;2.67;0.43;;;;;12.30;102385.00;;;;5041089;28;20208;-74
2023/03/04 06:40:15;;;;;;;3.53;0.57;;;;;12.30;102377.00;;;;5038717;28;20208;-74
2023/03/04 06:42:43;;;;;;;0.98;0.32;;;;;12.30;102381.00;;;;5039689;28;20286;-74
2023/03/04 06:45:12;;;;;;;2.90;0.30;;;;;12.30;102382.00;;;;5040408;28;20670;-75
2023/03/04 06:47:40;;;;;;;2.15;0.80;;;;;12.30;102386.00;;;;5042479;28;20204;-75
2023/03/04 06:50:10;;;;;;;4.50;0.95;;;;;12.30;102383.00;;;;5036994;28;20188;-74
2023/03/04 06:52:38;;;;;;;2.58;0.47;;;;;12.30;102389.00;;;;5039312;28;20187;-75
2023/03/04 06:55:06;;;;;;;1.90;0.40;;;;;12.30;102383.00;;;;5042196;28;20204;-74
2023/03/04 06:57:34;;;;;;;2.15;0.43;;;;;12.30;102382.00;;;;5040939;28;20191;-75
2023/03/04 07:00:02;;;;;;;3.78;0.70;;;;;12.30;102396.00;;;;5041975;28;20196;-74
2023/03/04 07:02:29;;;;;;;3.50;0.63;;;;;12.40;102399.00;;;;5040081;28;20602;-75
2023/03/04 07:04:59;;;;;;;5.07;0.50;;;;;12.40;102398.00;;;;5039099;28;20204;-75
2023/03/04 07:07:26;;;;;;;2.67;0.70;;;;;12.40;102402.00;;;;5043150;28;20228;-75
2023/03/04 07:09:54;;;;;;;4.78;0.85;;;;;12.40;102396.00;;;;5047568;28;20290;-74
2023/03/04 07:12:22;;;;;;;3.08;0.50;;;;;12.40;102400.00;;;;5044843;28;20206;-75
2023/03/04 07:14:50;;;;;;;2.63;0.55;;;;;12.40;102405.00;;;;5043400;28;20231;-74
2023/03/04 07:17:17;;;;;;;5.47;0.47;;;;;12.50;102398.00;;;;5039239;28;20192;-74
2023/03/04 07:19:45;;;;;;;3.63;0.77;;;;;12.50;102402.00;;;;5040627;28;20242;-75
2023/03/04 07:22:14;;;;;;;3.88;0.75;;;;;12.50;102408.00;;;;5047992;28;20200;-75
2023/03/04 07:24:42;;;;;;;1.58;0.47;;;;;12.50;102407.00;;;;5048558;28;20202;-74
2023/03/04 07:27:09;;;;;;;2.88;0.80;;;;;12.50;102407.00;;;;5049371;28;20203;-75
2023/03/04 07:29:36;;;;;;;2.90;0.40;;;;;12.50;102405.00;;;;5037664;28;20222;-75
2023/03/04 07:32:07;;;;;;;1.52;0.52;;;;;12.50;102409.00;;;;5039608;28;20681;-74
2023/03/04 07:34:34;;;;;;;1.33;0.30;;;;;12.50;102410.00;;;;5043508;28;20223;-76
2023/03/04 07:37:01;;;;;;;2.75;0.47;;;;;12.60;102405.00;;;;5044039;28;20514;-74
2023/03/04 07:39:30;;;;;;;1.60;0.10;;;;;12.60;102404.00;;;;5049568;28;20208;-74
2023/03/04 07:41:57;;;;;;;0.82;0.30;;;;;12.60;102407.00;;;;5048721;28;20670;-74
2023/03/04 07:44:25;;;;;;;1.45;0.20;;;;;12.60;102409.00;;;;5046665;28;20728;-75
2023/03/04 07:46:52;;;;;;;1.10;0.40;;;;;12.60;102417.00;;;;5044918;28;20200;-75
2023/03/04 07:49:19;;;;;;;3.35;0.70;;;;;12.60;102416.00;;;;5045068;28;20199;-76
2023/03/04 07:51:46;;;;;;;3.13;0.55;;;;;12.70;102413.00;;;;5033129;28;20208;-76
2023/03/04 07:54:14;;;;;;;2.08;0.32;;;;;12.70;102413.00;;;;5042235;28;20232;-75
2023/03/04 07:56:42;;;;;;;2.60;0.50;;;;;12.70;102406.00;;;;5044409;28;20195;-75
2023/03/04 07:59:10;;;;;;;2.20;0.63;;;;;12.80;102422.00;;;;5045280;28;20206;-76
2023/03/04 08:01:38;;;;;;;4.50;0.45;;;;;12.80;102426.00;;;;5048254;28;20208;-76
2023/03/04 08:04:07;;;;;;;4.45;0.60;;;;;12.80;102422.00;;;;5038363;28;20195;-76
2023/03/04 08:06:34;;;;;;;2.40;0.50;;;;;12.90;102419.00;;;;5039852;28;20251;-76
2023/03/04 08:09:04;;;;;;;3.65;0.50;;;;;12.90;102420.00;;;;5047547;28;20963;-76
2023/03/04 08:11:32;;;;;;;2.25;0.38;;;;;13.00;102418.00;;;;5043986;28;20462;-74
2023/03/04 08:14:01;;;;;;;1.83;0.38;;;;;13.10;102422.00;;;;5037981;28;20234;-74
2023/03/04 08:16:28;;;;;;;2.03;0.65;;;;;13.10;102425.00;;;;5042351;28;20200;-74
2023/03/04 08:18:58;;;;;;;1.45;0.22;;;;;13.20;102426.00;;;;5050656;28;20210;-74
2023/03/04 08:21:26;;;;;;;2.92;0.73;;;;;13.20;102424.00;;;;5052538;28;20203;-74
2023/03/04 08:23:54;;;;;;;2.63;0.60;;;;;13.30;102435.00;;;;5038915;28;20211;-74
2023/03/04 08:26:24;;;;;;;2.50;0.40;;;;;13.30;102428.00;;;;5038813;28;20200;-75
2023/03/04 08:28:53;;;;;;;2.22;0.47;;;;;13.30;102439.00;;;;5047758;28;20203;-75
2023/03/04 08:31:22;;;;;;;2.15;0.63;;;;;13.30;102436.00;;;;5056805;28;20196;-75
2023/03/04 08:33:50;;;;;;;1.50;0.20;;;;;13.30;102437.00;;;;5046304;28;20231;-74
2023/03/04 08:36:17;;;;;;;2.55;0.40;;;;;13.40;102439.00;;;;5047953;28;20207;-73
2023/03/04 08:38:44;;;;;;;2.22;0.40;;;;;13.40;102431.00;;;;5045230;28;20195;-74
2023/03/04 08:41:12;;;;;;;1.58;0.40;;;;;13.40;102442.00;;;;5044563;28;20204;-74
2023/03/04 08:43:39;;;;;;;1.80;0.30;;;;;13.50;102433.00;;;;5045905;28;20203;-74
2023/03/04 08:46:07;;;;;;;0.73;0.20;;;;;13.50;102439.00;;;;5047372;28;20222;-74
2023/03/04 08:48:36;;;;;;;6.22;0.50;;;;;13.60;102432.00;;;;5045028;28;20191;-74
2023/03/04 08:51:08;;;;;;;3.00;0.38;;;;;13.70;102431.00;;;;5037230;28;20701;-74
2023/03/04 08:53:35;;;;;;;2.85;0.68;;;;;13.70;102442.00;;;;5046890;28;20220;-74
2023/03/04 08:56:02;;;;;;;2.38;0.40;;;;;13.80;102432.00;;;;5029311;28;20678;-74
2023/03/04 08:58:30;;;;;;;0.85;0.30;;;;;13.80;102430.00;;;;5029024;28;20200;-74
2023/03/04 09:01:00;;;;;;;1.98;0.60;;;;;13.90;102430.00;;;;5040730;28;20195;-74
2023/03/04 09:03:27;;;;;;;1.20;0.43;;;;;13.90;102429.00;;;;5037206;28;20199;-74
2023/03/04 09:05:56;;;;;;;3.92;0.45;;;;;14.00;102426.00;;;;5047302;28;20199;-74
2023/03/04 09:08:24;;;;;;;0.45;0.15;;;;;14.00;102424.00;;;;5046933;28;20211;-74
2023/03/04 09:10:54;;;;;;;1.67;0.38;;;;;14.00;102426.00;;;;5048168;28;20231;-74
2023/03/04 09:13:22;;;;;;;3.08;0.30;;;;;14.10;102432.00;;;;5047712;28;20195;-74
2023/03/04 09:15:52;;;;;;;2.00;0.50;;;;;14.10;102423.00;;;;5031304;28;20685;-74
2023/03/04 09:18:20;;;;;;;2.40;0.35;;;;;14.10;102432.00;;;;5030017;28;20213;-74
2023/03/04 09:20:48;;;;;;;1.77;0.20;;;;;14.10;102425.00;;;;5047167;28;20187;-74
2023/03/04 09:23:18;;;;;;;1.38;0.40;;;;;14.00;102433.00;;;;5047047;28;20192;-74
2023/03/04 09:25:48;;;;;;;0.82;0.22;;;;;14.00;102433.00;;;;5046306;28;20200;-74
2023/03/04 09:28:16;;;;;;;2.15;0.40;;;;;14.00;102433.00;;;;5044487;28;20204;-74
2023/03/04 09:30:44;;;;;;;2.00;0.50;;;;;14.10;102432.00;;;;5044614;28;20226;-74
2023/03/04 09:33:12;;;;;;;1.55;0.30;;;;;14.10;102428.00;;;;5043585;28;20191;-74
2023/03/04 09:35:39;;;;;;;2.97;0.50;;;;;14.10;102421.00;;;;5050528;28;20227;-74
2023/03/04 09:38:07;;;;;;;1.08;0.22;;;;;14.20;102429.00;;;;5051905;28;20191;-74
2023/03/04 09:40:41;;;;;;;1.85;0.40;;;;;14.20;102430.00;;;;5050267;28;20203;-74
2023/03/04 09:43:18;;;;;;;1.52;0.32;;;;;14.20;102423.00;;;;5051801;28;20207;-74
2023/03/04 09:45:49;;;;;;;1.08;0.30;;;;;14.20;102425.00;;;;5051059;28;20276;-74
2023/03/04 09:48:20;;;;;;;1.17;0.30;;;;;14.30;102424.00;;;;5047440;28;20196;-74
2023/03/04 09:50:58;;;;;;;0.60;0.20;;;;;14.30;102424.00;;;;5030930;28;20196;-73
2023/03/04 09:53:34;;;;;;;0.55;0.17;;;;;14.30;102416.00;;;;5031383;28;20290;-74
2023/03/04 09:56:05;;;;;;;1.17;0.30;;;;;14.30;102420.00;;;;5031086;28;20196;-74
2023/03/04 09:58:44;;;;;;;0.77;0.20;;;;;14.40;102413.00;;;;5030749;28;20208;-74
2023/03/04 10:01:19;;;;;;;0.85;0.13;;;;;14.40;102410.00;;;;5045566;28;20191;-74
2023/03/04 10:03:51;;;;;;;1.67;0.30;;;;;14.50;102415.00;;;;5049203;28;20196;-74
2023/03/04 10:06:20;;;;;;;1.15;0.20;;;;;14.60;102418.00;;;;5038031;28;20301;-73
2023/03/04 10:08:54;;;;;;;0.68;0.30;;;;;14.60;102412.00;;;;5030614;28;20204;-74
2023/03/04 10:11:26;;;;;;;1.50;0.50;;;;;14.60;102403.00;;;;5030505;28;20211;-73
2023/03/04 10:14:03;;;;;;;1.95;0.25;;;;;14.60;102401.00;;;;5030671;28;20200;-74
2023/03/04 10:16:36;;;;;;;1.88;0.30;;;;;14.70;102405.00;;;;5036367;28;20219;-74
2023/03/04 10:19:20;;;;;;;2.53;0.40;;;;;14.80;102401.00;;;;5033593;28;20227;-74
2023/03/04 10:21:50;;;;;;;1.20;0.13;;;;;14.90;102408.00;;;;5030710;28;20215;-74
2023/03/04 10:24:19;;;;;;;1.27;0.40;;;;;14.90;102401.00;;;;5050621;28;20200;-74
2023/03/04 10:26:51;;;;;;;0.40;0.15;;;;;14.90;102410.00;;;;5050916;28;20748;-74
2023/03/04 10:29:20;;;;;;;0.98;0.20;;;;;14.90;102405.00;;;;5051111;28;20204;-74
2023/03/04 10:31:49;;;;;;;0.57;0.20;;;;;14.90;102398.00;;;;5049223;28;20196;-74
2023/03/04 10:34:18;;;;;;;0.90;0.40;;;;;14.90;102397.00;;;;5050509;28;20285;-73
2023/03/04 10:36:58;;;;;;;1.25;0.20;;;;;14.80;102386.00;;;;5050668;28;20577;-74
2023/03/04 10:39:29;;;;;;;0.98;0.20;;;;;14.90;102403.00;;;;5043736;28;20207;-74
2023/03/04 10:42:00;;;;;;;2.85;0.30;;;;;15.00;102396.00;;;;5030207;28;20200;-74
2023/03/04 10:44:28;;;;;;;2.22;0.20;;;;;15.10;102397.00;;;;5030384;28;20212;-74
2023/03/04 10:46:57;;;;;;;1.63;0.20;;;;;15.20;102389.00;;;;5034249;28;20190;-74
2023/03/04 10:49:26;;;;;;;1.10;0.25;;;;;15.30;102392.00;;;;5048592;28;20208;-74
2023/03/04 10:52:01;;;;;;;0.98;0.40;;;;;15.30;102390.00;;;;5049058;28;20250;-74
2023/03/04 10:54:31;;;;;;;1.35;0.30;;;;;15.40;102399.00;;;;5048281;28;20222;-73
2023/03/04 10:57:02;;;;;;;1.27;0.20;;;;;15.40;102386.00;;;;5040149;28;20585;-74
2023/03/04 10:59:43;;;;;;;2.30;0.38;;;;;15.30;102387.00;;;;5029844;28;20197;-74
2023/03/04 11:02:23;;;;;;;1.30;0.17;;;;;15.40;102386.00;;;;5035411;28;20199;-74
2023/03/04 11:04:53;;;;;;;0.65;0.20;;;;;15.40;102383.00;;;;5048755;28;20219;-74
2023/03/04 11:07:21;;;;;;;1.70;0.10;;;;;15.40;102384.00;;;;5049134;28;21094;-74
2023/03/04 11:09:49;;;;;;;0.30;0.10;;;;;15.40;102381.00;;;;5049583;28;20206;-74
2023/03/04 11:12:20;;;;;;;0.63;0.10;;;;;15.40;102366.00;;;;5048896;28;20199;-74
2023/03/04 11:14:49;;;;;;;0.45;0.10;;;;;15.50;102370.00;;;;5039570;28;20235;-74
2023/03/04 11:17:21;;;;;;;0.50;0.10;;;;;15.50;102368.00;;;;5048716;28;20211;-74
2023/03/04 11:19:52;;;;;;;0.28;0.20;;;;;15.50;102366.00;;;;5048972;28;20196;-74
2023/03/04 11:22:22;;;;;;;0.93;0.20;;;;;15.50;102357.00;;;;5049185;28;20191;-74
2023/03/04 11:24:58;;;;;;;0.10;0.10;;;;;15.50;102356.00;;;;5048196;28;20195;-74
2023/03/04 11:27:36;;;;;;;1.63;0.25;;;;;15.60;102359.00;;;;5048965;28;20195;-74
2023/03/04 11:30:21;;;;;;;0.63;0.10;;;;;15.70;102343.00;;;;5046171;28;20207;-74
2023/03/04 11:32:51;;;;;;;0.17;0.10;;;;;15.80;102348.00;;;;5047063;28;20192;-74
2023/03/04 11:35:26;;;;;;;1.90;0.10;;;;;15.80;102346.00;;;;5048688;28;20223;-74
2023/03/04 11:38:01;;;;;;;0.73;0.28;;;;;15.80;102355.00;;;;5048613;28;20222;-74
2023/03/04 11:40:34;;;;;;;0.55;0.20;;;;;15.90;102362.00;;;;5052960;28;20202;-74
2023/03/04 11:43:07;;;;;;;0.50;0.10;;;;;15.80;102360.00;;;;5055779;28;20207;-74
2023/03/04 11:46:00;;;;;;;0.65;0.30;;;;;15.60;102362.00;;;;5030656;28;20200;-74
2023/03/04 11:48:40;;;;;;;1.00;0.20;;;;;15.60;102361.00;;;;5034785;28;20211;-74
2023/03/04 11:51:11;;;;;;;0.57;0.10;;;;;15.60;102363.00;;;;5028738;28;20204;-74
2023/03/04 11:53:50;;;;;;;1.13;0.30;;;;;15.40;102366.00;;;;5047748;28;20558;-74
2023/03/04 11:56:30;;;;;;;0.68;0.28;;;;;15.40;102356.00;;;;5048357;28;20223;-73
2023/03/04 11:59:20;;;;;;;0.85;0.50;;;;;15.30;102357.00;;;;5048796;28;20208;-73
2023/03/04 12:01:55;;;;;;;0.20;0.05;;;;;15.40;102356.00;;;;5046889;28;20587;-74
2023/03/04 12:04:45;;;;;;;2.00;0.35;;;;;15.30;102345.00;;;;5045470;28;20211;-74
2023/03/04 12:07:38;;;;;;;2.13;0.40;;;;;15.40;102341.00;;;;5046762;28;20322;-74
2023/03/04 12:10:14;;;;;;;1.35;0.20;;;;;15.40;102341.00;;;;5048361;28;20207;-73
2023/03/04 12:13:08;;;;;;;2.70;0.60;;;;;15.40;102329.00;;;;5047519;28;20206;-74
2023/03/04 12:15:45;;;;;;;1.42;0.40;;;;;15.50;102329.00;;;;5047377;28;20230;-74
2023/03/04 12:18:21;;;;;;;2.85;0.32;;;;;15.50;102315.00;;;;5047047;28;20211;-74
2023/03/04 12:21:01;;;;;;;1.92;0.40;;;;;15.60;102326.00;;;;5047125;28;20200;-74